sensor_id;sensor_type;location;lat;lon;timestamp;P1;durP1;ratioP1;P2;durP2;ratioP2
68275;SDS011;55106;51.438;-0.098;2022-08-03T00:01:27;12.10;;;4.20;;
68275;SDS011;55106;51.438;-0.098;2022-08-03T00:03:53;11.20;;;3.87;;
68275;SDS011;55106;51.438;-0.098;2022-08-03T00:06:19;12.75;;;4.22;;
68275;SDS011;55106;51.438;-0.098;2022-08-03T00:08:44;16.13;;;3.93;;
68275;SDS011;55106;51.438;-0.098;2022-08-03T00:11:09;12.17;;;4.20;;
68275;SDS011;55106;51.438;-0.098;2022-08-03T00:13:35;12.77;;;4.30;;
68275;SDS011;55106;51.438;-0.098;2022-08-03T00:16:00;12.85;;;4.00;;
68275;SDS011;55106;51.438;-0.098;2022-08-03T00:18:26;14.50;;;4.53;;
68275;SDS011;55106;51.438;-0.098;2022-08-03T00:20:51;11.97;;;4.03;;
68275;SDS011;55106;51.438;-0.098;2022-08-03T00:23:17;14.80;;;4.07;;
68275;SDS011;55106;51.438;-0.098;2022-08-03T00:25:42;12.07;;;3.90;;
68275;SDS011;55106;51.438;-0.098;2022-08-03T00:28:08;12.57;;;4.23;;
68275;SDS011;55106;51.438;-0.098;2022-08-03T00:30:34;13.38;;;4.97;;
68275;SDS011;55106;51.438;-0.098;2022-08-03T00:32:59;15.37;;;4.33;;
68275;SDS011;55106;51.438;-0.098;2022-08-03T00:35:25;14.40;;;4.00;;
68275;SDS011;55106;51.438;-0.098;2022-08-03T00:37:51;11.73;;;4.07;;
68275;SDS011;55106;51.438;-0.098;2022-08-03T00:40:16;13.55;;;4.63;;
68275;SDS011;55106;51.438;-0.098;2022-08-03T00:45:22;13.90;;;4.13;;
68275;SDS011;55106;51.438;-0.098;2022-08-03T00:47:49;13.63;;;4.53;;
68275;SDS011;55106;51.438;-0.098;2022-08-03T00:50:14;13.47;;;4.93;;
68275;SDS011;55106;51.438;-0.098;2022-08-03T00:52:41;12.75;;;4.22;;
68275;SDS011;55106;51.438;-0.098;2022-08-03T00:55:07;12.02;;;4.05;;
68275;SDS011;55106;51.438;-0.098;2022-08-03T00:57:33;11.35;;;4.15;;
68275;SDS011;55106;51.438;-0.098;2022-08-03T00:59:59;11.97;;;4.20;;
68275;SDS011;55106;51.438;-0.098;2022-08-03T01:02:25;13.35;;;4.55;;
68275;SDS011;55106;51.438;-0.098;2022-08-03T01:04:52;11.90;;;5.17;;
68275;SDS011;55106;51.438;-0.098;2022-08-03T01:07:24;13.55;;;4.63;;
68275;SDS011;55106;51.438;-0.098;2022-08-03T01:10:23;13.73;;;5.20;;
68275;SDS011;55106;51.438;-0.098;2022-08-03T01:15:27;14.43;;;5.30;;
68275;SDS011;55106;51.438;-0.098;2022-08-03T01:18:06;13.88;;;4.70;;
68275;SDS011;55106;51.438;-0.098;2022-08-03T01:20:37;17.25;;;4.45;;
68275;SDS011;55106;51.438;-0.098;2022-08-03T01:31:36;16.13;;;4.32;;
68275;SDS011;55106;51.438;-0.098;2022-08-03T01:34:06;13.65;;;4.30;;
68275;SDS011;55106;51.438;-0.098;2022-08-03T01:36:35;11.17;;;4.43;;
68275;SDS011;55106;51.438;-0.098;2022-08-03T01:39:04;13.50;;;4.38;;
68275;SDS011;55106;51.438;-0.098;2022-08-03T01:41:37;16.65;;;4.82;;
68275;SDS011;55106;51.438;-0.098;2022-08-03T01:44:14;15.57;;;4.38;;
68275;SDS011;55106;51.438;-0.098;2022-08-03T01:46:41;11.48;;;4.55;;
68275;SDS011;55106;51.438;-0.098;2022-08-03T01:49:08;18.13;;;4.93;;
68275;SDS011;55106;51.438;-0.098;2022-08-03T01:51:40;15.13;;;5.13;;
68275;SDS011;55106;51.438;-0.098;2022-08-03T01:54:08;16.00;;;5.65;;
68275;SDS011;55106;51.438;-0.098;2022-08-03T01:56:35;13.50;;;5.15;;
68275;SDS011;55106;51.438;-0.098;2022-08-03T01:59:02;17.70;;;6.50;;
68275;SDS011;55106;51.438;-0.098;2022-08-03T02:01:30;13.17;;;4.73;;
68275;SDS011;55106;51.438;-0.098;2022-08-03T02:03:56;14.68;;;5.15;;
68275;SDS011;55106;51.438;-0.098;2022-08-03T02:06:23;15.10;;;5.95;;
68275;SDS011;55106;51.438;-0.098;2022-08-03T02:08:50;17.95;;;5.22;;
68275;SDS011;55106;51.438;-0.098;2022-08-03T02:11:17;15.13;;;5.28;;
68275;SDS011;55106;51.438;-0.098;2022-08-03T02:13:43;12.07;;;4.97;;
68275;SDS011;55106;51.438;-0.098;2022-08-03T02:16:11;16.40;;;5.78;;
68275;SDS011;55106;51.438;-0.098;2022-08-03T02:18:38;11.95;;;5.65;;
68275;SDS011;55106;51.438;-0.098;2022-08-03T02:21:04;17.52;;;6.63;;
68275;SDS011;55106;51.438;-0.098;2022-08-03T02:23:34;17.45;;;7.00;;
68275;SDS011;55106;51.438;-0.098;2022-08-03T02:26:01;16.93;;;5.90;;
68275;SDS011;55106;51.438;-0.098;2022-08-03T02:28:29;16.30;;;6.22;;
68275;SDS011;55106;51.438;-0.098;2022-08-03T02:31:03;11.90;;;5.95;;
68275;SDS011;55106;51.438;-0.098;2022-08-03T02:33:33;13.82;;;6.70;;
68275;SDS011;55106;51.438;-0.098;2022-08-03T02:36:03;16.48;;;6.68;;
68275;SDS011;55106;51.438;-0.098;2022-08-03T02:38:32;15.07;;;7.17;;
68275;SDS011;55106;51.438;-0.098;2022-08-03T02:41:00;16.90;;;7.63;;
68275;SDS011;55106;51.438;-0.098;2022-08-03T02:43:31;17.88;;;7.72;;
68275;SDS011;55106;51.438;-0.098;2022-08-03T02:46:00;16.88;;;7.50;;
68275;SDS011;55106;51.438;-0.098;2022-08-03T02:48:26;15.40;;;7.60;;
68275;SDS011;55106;51.438;-0.098;2022-08-03T02:50:56;17.48;;;7.60;;
68275;SDS011;55106;51.438;-0.098;2022-08-03T02:53:23;20.55;;;8.95;;
68275;SDS011;55106;51.438;-0.098;2022-08-03T02:55:49;17.50;;;9.00;;
68275;SDS011;55106;51.438;-0.098;2022-08-03T02:58:16;17.08;;;8.52;;
68275;SDS011;55106;51.438;-0.098;2022-08-03T03:00:45;23.42;;;9.88;;
68275;SDS011;55106;51.438;-0.098;2022-08-03T03:03:11;21.63;;;10.27;;
68275;SDS011;55106;51.438;-0.098;2022-08-03T03:05:37;21.67;;;9.63;;
68275;SDS011;55106;51.438;-0.098;2022-08-03T03:08:04;19.63;;;10.13;;
68275;SDS011;55106;51.438;-0.098;2022-08-03T03:10:30;22.23;;;11.32;;
68275;SDS011;55106;51.438;-0.098;2022-08-03T03:12:56;20.13;;;10.10;;
68275;SDS011;55106;51.438;-0.098;2022-08-03T03:15:27;19.27;;;9.63;;
68275;SDS011;55106;51.438;-0.098;2022-08-03T03:17:53;16.80;;;8.10;;
68275;SDS011;55106;51.438;-0.098;2022-08-03T03:20:20;18.10;;;8.98;;
68275;SDS011;55106;51.438;-0.098;2022-08-03T03:22:47;17.10;;;7.83;;
68275;SDS011;55106;51.438;-0.098;2022-08-03T03:25:14;17.75;;;9.00;;
68275;SDS011;55106;51.438;-0.098;2022-08-03T03:27:40;16.52;;;8.23;;
68275;SDS011;55106;51.438;-0.098;2022-08-03T03:30:07;18.48;;;6.82;;
68275;SDS011;55106;51.438;-0.098;2022-08-03T03:32:33;14.38;;;7.25;;
68275;SDS011;55106;51.438;-0.098;2022-08-03T03:35:00;16.10;;;7.07;;
68275;SDS011;55106;51.438;-0.098;2022-08-03T03:37:26;15.63;;;6.90;;
68275;SDS011;55106;51.438;-0.098;2022-08-03T03:39:52;17.95;;;7.15;;
68275;SDS011;55106;51.438;-0.098;2022-08-03T03:42:18;14.33;;;6.97;;
68275;SDS011;55106;51.438;-0.098;2022-08-03T03:44:44;15.70;;;7.60;;
68275;SDS011;55106;51.438;-0.098;2022-08-03T03:47:10;15.63;;;6.85;;
68275;SDS011;55106;51.438;-0.098;2022-08-03T03:49:36;13.30;;;6.17;;
68275;SDS011;55106;51.438;-0.098;2022-08-03T03:52:02;16.58;;;7.25;;
68275;SDS011;55106;51.438;-0.098;2022-08-03T03:54:40;17.20;;;8.00;;
68275;SDS011;55106;51.438;-0.098;2022-08-03T03:57:06;15.30;;;6.80;;
68275;SDS011;55106;51.438;-0.098;2022-08-03T03:59:35;15.93;;;7.57;;
68275;SDS011;55106;51.438;-0.098;2022-08-03T04:02:02;16.03;;;7.10;;
68275;SDS011;55106;51.438;-0.098;2022-08-03T04:04:30;15.65;;;7.90;;
68275;SDS011;55106;51.438;-0.098;2022-08-03T04:07:15;16.10;;;8.13;;
68275;SDS011;55106;51.438;-0.098;2022-08-03T04:09:59;12.70;;;7.35;;
68275;SDS011;55106;51.438;-0.098;2022-08-03T04:12:44;12.63;;;6.68;;
68275;SDS011;55106;51.438;-0.098;2022-08-03T04:15:12;14.20;;;6.30;;
68275;SDS011;55106;51.438;-0.098;2022-08-03T04:17:39;15.15;;;6.22;;
68275;SDS011;55106;51.438;-0.098;2022-08-03T04:20:06;17.15;;;7.10;;
68275;SDS011;55106;51.438;-0.098;2022-08-03T04:22:31;14.30;;;7.18;;
68275;SDS011;55106;51.438;-0.098;2022-08-03T04:25:02;16.17;;;7.97;;
68275;SDS011;55106;51.438;-0.098;2022-08-03T04:27:35;17.13;;;7.03;;
68275;SDS011;55106;51.438;-0.098;2022-08-03T04:30:04;15.05;;;7.63;;
68275;SDS011;55106;51.438;-0.098;2022-08-03T04:32:30;12.70;;;8.05;;
68275;SDS011;55106;51.438;-0.098;2022-08-03T04:34:57;14.57;;;7.30;;
68275;SDS011;55106;51.438;-0.098;2022-08-03T04:37:25;15.57;;;7.07;;
68275;SDS011;55106;51.438;-0.098;2022-08-03T04:39:59;15.30;;;7.68;;
68275;SDS011;55106;51.438;-0.098;2022-08-03T04:42:28;12.35;;;7.03;;
68275;SDS011;55106;51.438;-0.098;2022-08-03T04:44:55;14.55;;;7.60;;
68275;SDS011;55106;51.438;-0.098;2022-08-03T04:47:22;16.13;;;6.57;;
68275;SDS011;55106;51.438;-0.098;2022-08-03T04:49:47;15.90;;;7.50;;
68275;SDS011;55106;51.438;-0.098;2022-08-03T04:52:13;13.75;;;6.93;;
68275;SDS011;55106;51.438;-0.098;2022-08-03T04:54:39;18.20;;;5.90;;
68275;SDS011;55106;51.438;-0.098;2022-08-03T04:57:06;17.63;;;6.35;;
68275;SDS011;55106;51.438;-0.098;2022-08-03T04:59:31;13.30;;;6.33;;
68275;SDS011;55106;51.438;-0.098;2022-08-03T05:01:56;14.00;;;6.17;;
68275;SDS011;55106;51.438;-0.098;2022-08-03T05:04:22;14.88;;;6.22;;
68275;SDS011;55106;51.438;-0.098;2022-08-03T05:06:47;13.77;;;6.00;;
68275;SDS011;55106;51.438;-0.098;2022-08-03T05:09:13;10.80;;;5.53;;
68275;SDS011;55106;51.438;-0.098;2022-08-03T05:11:38;13.57;;;5.90;;
68275;SDS011;55106;51.438;-0.098;2022-08-03T05:14:04;11.73;;;5.50;;
68275;SDS011;55106;51.438;-0.098;2022-08-03T05:16:29;11.55;;;5.13;;
68275;SDS011;55106;51.438;-0.098;2022-08-03T05:18:55;10.47;;;5.30;;
68275;SDS011;55106;51.438;-0.098;2022-08-03T05:21:20;10.73;;;5.73;;
68275;SDS011;55106;51.438;-0.098;2022-08-03T05:23:45;12.67;;;5.03;;
68275;SDS011;55106;51.438;-0.098;2022-08-03T05:26:11;12.02;;;4.93;;
68275;SDS011;55106;51.438;-0.098;2022-08-03T05:28:37;11.33;;;4.87;;
68275;SDS011;55106;51.438;-0.098;2022-08-03T05:31:02;12.38;;;4.55;;
68275;SDS011;55106;51.438;-0.098;2022-08-03T05:33:28;11.17;;;5.13;;
68275;SDS011;55106;51.438;-0.098;2022-08-03T05:35:53;10.00;;;4.83;;
68275;SDS011;55106;51.438;-0.098;2022-08-03T05:38:19;11.18;;;5.10;;
68275;SDS011;55106;51.438;-0.098;2022-08-03T05:40:44;13.33;;;5.53;;
68275;SDS011;55106;51.438;-0.098;2022-08-03T05:43:10;12.03;;;5.30;;
68275;SDS011;55106;51.438;-0.098;2022-08-03T05:45:36;10.95;;;4.85;;
68275;SDS011;55106;51.438;-0.098;2022-08-03T05:48:03;10.70;;;4.57;;
68275;SDS011;55106;51.438;-0.098;2022-08-03T05:50:29;12.82;;;5.00;;
68275;SDS011;55106;51.438;-0.098;2022-08-03T05:52:55;11.77;;;5.43;;
68275;SDS011;55106;51.438;-0.098;2022-08-03T05:55:23;13.20;;;6.05;;
68275;SDS011;55106;51.438;-0.098;2022-08-03T05:57:48;13.38;;;5.70;;
68275;SDS011;55106;51.438;-0.098;2022-08-03T06:00:14;14.47;;;6.07;;
68275;SDS011;55106;51.438;-0.098;2022-08-03T06:02:40;12.55;;;6.45;;
68275;SDS011;55106;51.438;-0.098;2022-08-03T06:05:06;11.67;;;6.43;;
68275;SDS011;55106;51.438;-0.098;2022-08-03T06:07:32;13.73;;;6.38;;
68275;SDS011;55106;51.438;-0.098;2022-08-03T06:09:58;13.57;;;6.90;;
68275;SDS011;55106;51.438;-0.098;2022-08-03T06:12:26;11.57;;;6.25;;
68275;SDS011;55106;51.438;-0.098;2022-08-03T06:14:51;13.75;;;6.85;;
68275;SDS011;55106;51.438;-0.098;2022-08-03T06:17:17;13.13;;;6.53;;
68275;SDS011;55106;51.438;-0.098;2022-08-03T06:19:42;14.20;;;6.83;;
68275;SDS011;55106;51.438;-0.098;2022-08-03T06:22:08;12.47;;;6.00;;
68275;SDS011;55106;51.438;-0.098;2022-08-03T06:24:33;11.40;;;5.90;;
68275;SDS011;55106;51.438;-0.098;2022-08-03T06:26:58;11.50;;;6.30;;
68275;SDS011;55106;51.438;-0.098;2022-08-03T06:29:24;11.53;;;6.40;;
68275;SDS011;55106;51.438;-0.098;2022-08-03T06:31:49;12.17;;;6.30;;
68275;SDS011;55106;51.438;-0.098;2022-08-03T06:34:15;15.70;;;6.33;;
68275;SDS011;55106;51.438;-0.098;2022-08-03T06:36:40;10.73;;;6.20;;
68275;SDS011;55106;51.438;-0.098;2022-08-03T06:39:06;11.03;;;5.23;;
68275;SDS011;55106;51.438;-0.098;2022-08-03T06:41:31;11.63;;;5.63;;
68275;SDS011;55106;51.438;-0.098;2022-08-03T06:43:57;10.48;;;4.97;;
68275;SDS011;55106;51.438;-0.098;2022-08-03T06:46:22;10.87;;;5.23;;
68275;SDS011;55106;51.438;-0.098;2022-08-03T06:48:48;10.33;;;4.90;;
68275;SDS011;55106;51.438;-0.098;2022-08-03T06:51:13;11.13;;;5.00;;
68275;SDS011;55106;51.438;-0.098;2022-08-03T06:53:39;9.50;;;4.60;;
68275;SDS011;55106;51.438;-0.098;2022-08-03T06:56:05;10.63;;;4.60;;
68275;SDS011;55106;51.438;-0.098;2022-08-03T06:58:31;8.15;;;3.97;;
68275;SDS011;55106;51.438;-0.098;2022-08-03T07:00:56;9.40;;;4.40;;
68275;SDS011;55106;51.438;-0.098;2022-08-03T07:03:22;9.30;;;3.97;;
68275;SDS011;55106;51.438;-0.098;2022-08-03T07:05:47;9.65;;;4.07;;
68275;SDS011;55106;51.438;-0.098;2022-08-03T07:08:13;7.72;;;3.63;;
68275;SDS011;55106;51.438;-0.098;2022-08-03T07:10:39;8.17;;;3.00;;
68275;SDS011;55106;51.438;-0.098;2022-08-03T07:13:04;6.47;;;3.53;;
68275;SDS011;55106;51.438;-0.098;2022-08-03T07:15:31;7.97;;;3.53;;
68275;SDS011;55106;51.438;-0.098;2022-08-03T07:17:56;9.48;;;3.47;;
68275;SDS011;55106;51.438;-0.098;2022-08-03T07:20:22;8.70;;;3.80;;
68275;SDS011;55106;51.438;-0.098;2022-08-03T07:22:48;9.48;;;3.60;;
68275;SDS011;55106;51.438;-0.098;2022-08-03T07:25:13;7.93;;;3.60;;
68275;SDS011;55106;51.438;-0.098;2022-08-03T07:27:42;10.82;;;3.78;;
68275;SDS011;55106;51.438;-0.098;2022-08-03T07:30:09;7.07;;;3.50;;
68275;SDS011;55106;51.438;-0.098;2022-08-03T07:32:35;6.95;;;3.47;;
68275;SDS011;55106;51.438;-0.098;2022-08-03T07:35:01;8.77;;;2.90;;
68275;SDS011;55106;51.438;-0.098;2022-08-03T07:37:28;9.38;;;3.40;;
68275;SDS011;55106;51.438;-0.098;2022-08-03T07:39:54;6.63;;;3.05;;
68275;SDS011;55106;51.438;-0.098;2022-08-03T07:42:20;7.30;;;2.83;;
68275;SDS011;55106;51.438;-0.098;2022-08-03T07:44:46;6.93;;;3.10;;
68275;SDS011;55106;51.438;-0.098;2022-08-03T07:47:12;6.47;;;3.23;;
68275;SDS011;55106;51.438;-0.098;2022-08-03T07:49:41;7.45;;;3.40;;
68275;SDS011;55106;51.438;-0.098;2022-08-03T07:52:07;7.53;;;3.30;;
68275;SDS011;55106;51.438;-0.098;2022-08-03T07:54:51;6.57;;;3.47;;
68275;SDS011;55106;51.438;-0.098;2022-08-03T07:57:16;7.90;;;3.70;;
68275;SDS011;55106;51.438;-0.098;2022-08-03T07:59:44;8.43;;;3.50;;
68275;SDS011;55106;51.438;-0.098;2022-08-03T08:02:10;6.75;;;3.42;;
68275;SDS011;55106;51.438;-0.098;2022-08-03T08:04:35;6.30;;;3.67;;
68275;SDS011;55106;51.438;-0.098;2022-08-03T08:07:00;6.55;;;3.15;;
68275;SDS011;55106;51.438;-0.098;2022-08-03T08:09:26;6.90;;;3.30;;
68275;SDS011;55106;51.438;-0.098;2022-08-03T08:11:51;7.53;;;4.00;;
68275;SDS011;55106;51.438;-0.098;2022-08-03T08:14:17;6.67;;;3.60;;
68275;SDS011;55106;51.438;-0.098;2022-08-03T08:16:42;8.18;;;3.60;;
68275;SDS011;55106;51.438;-0.098;2022-08-03T08:19:08;7.13;;;3.33;;
68275;SDS011;55106;51.438;-0.098;2022-08-03T08:21:33;7.87;;;3.70;;
68275;SDS011;55106;51.438;-0.098;2022-08-03T08:23:58;8.17;;;3.17;;
68275;SDS011;55106;51.438;-0.098;2022-08-03T08:26:24;6.47;;;3.00;;
68275;SDS011;55106;51.438;-0.098;2022-08-03T08:28:49;6.27;;;2.70;;
68275;SDS011;55106;51.438;-0.098;2022-08-03T08:31:16;7.13;;;3.00;;
68275;SDS011;55106;51.438;-0.098;2022-08-03T08:33:41;6.70;;;2.47;;
68275;SDS011;55106;51.438;-0.098;2022-08-03T08:36:07;5.50;;;2.50;;
68275;SDS011;55106;51.438;-0.098;2022-08-03T08:38:33;6.33;;;2.20;;
68275;SDS011;55106;51.438;-0.098;2022-08-03T08:40:59;5.72;;;2.40;;
68275;SDS011;55106;51.438;-0.098;2022-08-03T08:43:24;5.63;;;2.92;;
68275;SDS011;55106;51.438;-0.098;2022-08-03T08:45:50;6.13;;;2.43;;
68275;SDS011;55106;51.438;-0.098;2022-08-03T08:48:21;6.60;;;2.38;;
68275;SDS011;55106;51.438;-0.098;2022-08-03T08:50:54;5.20;;;2.30;;
68275;SDS011;55106;51.438;-0.098;2022-08-03T08:53:23;5.55;;;1.92;;
68275;SDS011;55106;51.438;-0.098;2022-08-03T08:58:53;4.72;;;1.80;;
68275;SDS011;55106;51.438;-0.098;2022-08-03T09:01:22;6.45;;;2.00;;
68275;SDS011;55106;51.438;-0.098;2022-08-03T09:03:48;5.90;;;2.37;;
68275;SDS011;55106;51.438;-0.098;2022-08-03T09:06:14;4.90;;;2.17;;
68275;SDS011;55106;51.438;-0.098;2022-08-03T09:08:39;5.43;;;2.00;;
68275;SDS011;55106;51.438;-0.098;2022-08-03T09:11:05;4.57;;;1.85;;
68275;SDS011;55106;51.438;-0.098;2022-08-03T09:13:31;5.70;;;1.77;;
68275;SDS011;55106;51.438;-0.098;2022-08-03T09:16:07;6.23;;;1.73;;
68275;SDS011;55106;51.438;-0.098;2022-08-03T09:18:34;4.47;;;1.58;;
68275;SDS011;55106;51.438;-0.098;2022-08-03T09:21:16;4.82;;;1.80;;
68275;SDS011;55106;51.438;-0.098;2022-08-03T09:23:49;4.77;;;1.80;;
68275;SDS011;55106;51.438;-0.098;2022-08-03T09:26:23;5.53;;;1.50;;
68275;SDS011;55106;51.438;-0.098;2022-08-03T09:28:57;5.32;;;1.40;;
68275;SDS011;55106;51.438;-0.098;2022-08-03T09:34:26;5.05;;;1.75;;
68275;SDS011;55106;51.438;-0.098;2022-08-03T09:36:55;3.53;;;1.40;;
68275;SDS011;55106;51.438;-0.098;2022-08-03T09:39:23;4.00;;;1.40;;
68275;SDS011;55106;51.438;-0.098;2022-08-03T09:42:04;4.25;;;1.75;;
68275;SDS011;55106;51.438;-0.098;2022-08-03T09:44:36;4.13;;;1.80;;
68275;SDS011;55106;51.438;-0.098;2022-08-03T09:47:03;4.82;;;2.00;;
68275;SDS011;55106;51.438;-0.098;2022-08-03T09:49:30;5.10;;;1.60;;
68275;SDS011;55106;51.438;-0.098;2022-08-03T09:51:56;5.53;;;1.60;;
68275;SDS011;55106;51.438;-0.098;2022-08-03T09:54:30;5.22;;;2.10;;
68275;SDS011;55106;51.438;-0.098;2022-08-03T09:56:56;5.53;;;1.50;;
68275;SDS011;55106;51.438;-0.098;2022-08-03T09:59:32;4.13;;;1.80;;
68275;SDS011;55106;51.438;-0.098;2022-08-03T10:01:58;4.20;;;1.37;;
68275;SDS011;55106;51.438;-0.098;2022-08-03T10:04:26;6.93;;;1.92;;
68275;SDS011;55106;51.438;-0.098;2022-08-03T10:09:34;5.30;;;2.05;;
68275;SDS011;55106;51.438;-0.098;2022-08-03T10:12:10;4.77;;;1.63;;
68275;SDS011;55106;51.438;-0.098;2022-08-03T10:14:37;5.60;;;1.48;;
68275;SDS011;55106;51.438;-0.098;2022-08-03T10:17:03;7.00;;;1.73;;
68275;SDS011;55106;51.438;-0.098;2022-08-03T10:19:29;4.43;;;1.50;;
68275;SDS011;55106;51.438;-0.098;2022-08-03T10:21:55;4.87;;;1.63;;
68275;SDS011;55106;51.438;-0.098;2022-08-03T10:24:25;5.18;;;1.80;;
68275;SDS011;55106;51.438;-0.098;2022-08-03T10:26:56;4.03;;;1.50;;
68275;SDS011;55106;51.438;-0.098;2022-08-03T10:29:27;5.40;;;1.60;;
68275;SDS011;55106;51.438;-0.098;2022-08-03T10:31:57;5.57;;;1.83;;
68275;SDS011;55106;51.438;-0.098;2022-08-03T10:34:24;3.72;;;1.25;;
68275;SDS011;55106;51.438;-0.098;2022-08-03T10:36:55;6.40;;;1.17;;
68275;SDS011;55106;51.438;-0.098;2022-08-03T10:39:23;3.58;;;1.20;;
68275;SDS011;55106;51.438;-0.098;2022-08-03T10:41:54;4.00;;;1.30;;
68275;SDS011;55106;51.438;-0.098;2022-08-03T10:44:23;4.97;;;1.50;;
68275;SDS011;55106;51.438;-0.098;2022-08-03T10:46:50;6.95;;;1.30;;
68275;SDS011;55106;51.438;-0.098;2022-08-03T10:49:17;6.40;;;1.50;;
68275;SDS011;55106;51.438;-0.098;2022-08-03T10:51:44;4.78;;;1.17;;
68275;SDS011;55106;51.438;-0.098;2022-08-03T11:00:24;4.65;;;1.15;;
68275;SDS011;55106;51.438;-0.098;2022-08-03T11:05:40;4.43;;;1.60;;
68275;SDS011;55106;51.438;-0.098;2022-08-03T11:08:16;5.07;;;1.30;;
68275;SDS011;55106;51.438;-0.098;2022-08-03T11:10:42;4.53;;;1.50;;
68275;SDS011;55106;51.438;-0.098;2022-08-03T11:13:07;3.53;;;1.10;;
68275;SDS011;55106;51.438;-0.098;2022-08-03T11:15:34;4.07;;;1.30;;
68275;SDS011;55106;51.438;-0.098;2022-08-03T11:18:08;4.90;;;1.08;;
68275;SDS011;55106;51.438;-0.098;2022-08-03T11:20:47;6.32;;;1.42;;
68275;SDS011;55106;51.438;-0.098;2022-08-03T11:23:14;6.78;;;1.35;;
68275;SDS011;55106;51.438;-0.098;2022-08-03T11:28:32;8.30;;;1.70;;
68275;SDS011;55106;51.438;-0.098;2022-08-03T11:31:31;4.18;;;1.30;;
68275;SDS011;55106;51.438;-0.098;2022-08-03T11:34:08;5.63;;;1.77;;
68275;SDS011;55106;51.438;-0.098;2022-08-03T11:39:43;5.45;;;1.50;;
68275;SDS011;55106;51.438;-0.098;2022-08-03T11:42:55;6.90;;;1.80;;
68275;SDS011;55106;51.438;-0.098;2022-08-03T11:44:59;4.95;;;2.00;;
68275;SDS011;55106;51.438;-0.098;2022-08-03T11:47:25;5.00;;;1.90;;
68275;SDS011;55106;51.438;-0.098;2022-08-03T11:49:53;4.85;;;1.50;;
68275;SDS011;55106;51.438;-0.098;2022-08-03T11:52:21;4.90;;;1.63;;
68275;SDS011;55106;51.438;-0.098;2022-08-03T11:54:49;5.63;;;1.87;;
68275;SDS011;55106;51.438;-0.098;2022-08-03T11:57:31;5.87;;;1.50;;
68275;SDS011;55106;51.438;-0.098;2022-08-03T11:59:58;6.05;;;2.05;;
68275;SDS011;55106;51.438;-0.098;2022-08-03T12:02:23;7.37;;;1.80;;
68275;SDS011;55106;51.438;-0.098;2022-08-03T12:04:52;5.55;;;1.70;;
68275;SDS011;55106;51.438;-0.098;2022-08-03T12:07:26;5.13;;;1.33;;
68275;SDS011;55106;51.438;-0.098;2022-08-03T12:10:06;6.15;;;1.70;;
68275;SDS011;55106;51.438;-0.098;2022-08-03T12:12:32;5.72;;;1.50;;
68275;SDS011;55106;51.438;-0.098;2022-08-03T12:14:57;5.73;;;1.50;;
68275;SDS011;55106;51.438;-0.098;2022-08-03T12:17:23;5.57;;;1.85;;
68275;SDS011;55106;51.438;-0.098;2022-08-03T12:20:06;6.07;;;1.60;;
68275;SDS011;55106;51.438;-0.098;2022-08-03T12:22:37;7.32;;;1.40;;
68275;SDS011;55106;51.438;-0.098;2022-08-03T12:25:04;3.95;;;1.33;;
68275;SDS011;55106;51.438;-0.098;2022-08-03T12:27:33;4.35;;;1.48;;
68275;SDS011;55106;51.438;-0.098;2022-08-03T12:29:59;7.47;;;1.65;;
68275;SDS011;55106;51.438;-0.098;2022-08-03T12:32:27;4.10;;;1.47;;
68275;SDS011;55106;51.438;-0.098;2022-08-03T12:34:54;5.22;;;1.58;;
68275;SDS011;55106;51.438;-0.098;2022-08-03T12:37:23;4.80;;;1.30;;
68275;SDS011;55106;51.438;-0.098;2022-08-03T12:39:53;5.72;;;1.45;;
68275;SDS011;55106;51.438;-0.098;2022-08-03T12:42:35;4.10;;;1.20;;
68275;SDS011;55106;51.438;-0.098;2022-08-03T12:47:48;5.03;;;1.30;;
68275;SDS011;55106;51.438;-0.098;2022-08-03T12:50:28;4.63;;;1.27;;
68275;SDS011;55106;51.438;-0.098;2022-08-03T12:52:55;5.57;;;1.20;;
68275;SDS011;55106;51.438;-0.098;2022-08-03T12:55:22;5.35;;;1.60;;
68275;SDS011;55106;51.438;-0.098;2022-08-03T12:57:48;4.33;;;1.20;;
68275;SDS011;55106;51.438;-0.098;2022-08-03T13:00:14;3.38;;;1.17;;
68275;SDS011;55106;51.438;-0.098;2022-08-03T13:02:42;4.03;;;1.25;;
68275;SDS011;55106;51.438;-0.098;2022-08-03T13:05:13;4.55;;;1.13;;
68275;SDS011;55106;51.438;-0.098;2022-08-03T13:07:40;4.73;;;1.20;;
68275;SDS011;55106;51.438;-0.098;2022-08-03T13:10:10;4.30;;;1.00;;
68275;SDS011;55106;51.438;-0.098;2022-08-03T13:12:46;5.22;;;1.00;;
68275;SDS011;55106;51.438;-0.098;2022-08-03T13:15:12;4.22;;;1.05;;
68275;SDS011;55106;51.438;-0.098;2022-08-03T13:17:38;4.33;;;1.00;;
68275;SDS011;55106;51.438;-0.098;2022-08-03T13:20:04;6.60;;;1.30;;
68275;SDS011;55106;51.438;-0.098;2022-08-03T13:22:30;4.63;;;0.90;;
68275;SDS011;55106;51.438;-0.098;2022-08-03T13:24:57;3.33;;;1.00;;
68275;SDS011;55106;51.438;-0.098;2022-08-03T13:27:25;6.45;;;1.27;;
68275;SDS011;55106;51.438;-0.098;2022-08-03T13:29:51;4.82;;;1.02;;
68275;SDS011;55106;51.438;-0.098;2022-08-03T13:32:17;3.87;;;1.17;;
68275;SDS011;55106;51.438;-0.098;2022-08-03T13:34:43;5.50;;;1.10;;
68275;SDS011;55106;51.438;-0.098;2022-08-03T13:37:10;5.15;;;1.38;;
68275;SDS011;55106;51.438;-0.098;2022-08-03T13:39:36;4.43;;;1.13;;
68275;SDS011;55106;51.438;-0.098;2022-08-03T13:42:02;5.68;;;1.17;;
68275;SDS011;55106;51.438;-0.098;2022-08-03T13:44:27;4.50;;;1.00;;
68275;SDS011;55106;51.438;-0.098;2022-08-03T13:46:53;5.73;;;1.10;;
68275;SDS011;55106;51.438;-0.098;2022-08-03T13:49:18;5.65;;;1.60;;
68275;SDS011;55106;51.438;-0.098;2022-08-03T13:51:44;4.20;;;1.30;;
68275;SDS011;55106;51.438;-0.098;2022-08-03T13:54:09;4.50;;;1.47;;
68275;SDS011;55106;51.438;-0.098;2022-08-03T13:56:35;7.17;;;1.50;;
68275;SDS011;55106;51.438;-0.098;2022-08-03T13:59:00;4.90;;;1.20;;
68275;SDS011;55106;51.438;-0.098;2022-08-03T14:01:25;5.82;;;1.80;;
68275;SDS011;55106;51.438;-0.098;2022-08-03T14:03:51;5.70;;;1.20;;
68275;SDS011;55106;51.438;-0.098;2022-08-03T14:06:21;4.43;;;1.38;;
68275;SDS011;55106;51.438;-0.098;2022-08-03T14:08:47;5.15;;;1.10;;
68275;SDS011;55106;51.438;-0.098;2022-08-03T14:11:13;5.57;;;1.43;;
68275;SDS011;55106;51.438;-0.098;2022-08-03T14:13:39;5.15;;;1.23;;
68275;SDS011;55106;51.438;-0.098;2022-08-03T14:16:05;9.80;;;5.13;;
68275;SDS011;55106;51.438;-0.098;2022-08-03T14:18:30;6.13;;;1.67;;
68275;SDS011;55106;51.438;-0.098;2022-08-03T14:20:57;5.90;;;1.53;;
68275;SDS011;55106;51.438;-0.098;2022-08-03T14:23:22;5.00;;;1.50;;
68275;SDS011;55106;51.438;-0.098;2022-08-03T14:25:48;4.83;;;1.30;;
68275;SDS011;55106;51.438;-0.098;2022-08-03T14:28:13;4.30;;;1.17;;
68275;SDS011;55106;51.438;-0.098;2022-08-03T14:30:39;7.00;;;1.30;;
68275;SDS011;55106;51.438;-0.098;2022-08-03T14:33:04;6.40;;;1.40;;
68275;SDS011;55106;51.438;-0.098;2022-08-03T14:35:30;3.47;;;1.27;;
68275;SDS011;55106;51.438;-0.098;2022-08-03T14:37:55;4.13;;;1.30;;
68275;SDS011;55106;51.438;-0.098;2022-08-03T14:40:21;4.73;;;1.63;;
68275;SDS011;55106;51.438;-0.098;2022-08-03T14:42:46;5.75;;;1.55;;
68275;SDS011;55106;51.438;-0.098;2022-08-03T14:45:12;4.63;;;1.30;;
68275;SDS011;55106;51.438;-0.098;2022-08-03T14:47:39;4.67;;;1.43;;
68275;SDS011;55106;51.438;-0.098;2022-08-03T14:50:05;4.65;;;1.27;;
68275;SDS011;55106;51.438;-0.098;2022-08-03T14:52:31;6.23;;;1.60;;
68275;SDS011;55106;51.438;-0.098;2022-08-03T14:54:57;7.22;;;1.70;;
68275;SDS011;55106;51.438;-0.098;2022-08-03T14:57:23;7.55;;;1.75;;
68275;SDS011;55106;51.438;-0.098;2022-08-03T14:59:49;5.20;;;1.42;;
68275;SDS011;55106;51.438;-0.098;2022-08-03T15:02:15;6.00;;;1.67;;
68275;SDS011;55106;51.438;-0.098;2022-08-03T15:04:40;5.03;;;1.60;;
68275;SDS011;55106;51.438;-0.098;2022-08-03T15:07:06;5.70;;;2.00;;
68275;SDS011;55106;51.438;-0.098;2022-08-03T15:09:31;7.30;;;2.27;;
68275;SDS011;55106;51.438;-0.098;2022-08-03T15:11:57;5.93;;;2.10;;